createdAt,value
2022-08-18T00:02:07.141Z,101063.72
2022-08-18T00:05:13.649Z,101060.38
2022-08-18T00:08:18.839Z,101056.34
2022-08-18T00:11:23.774Z,101059.41
2022-08-18T00:14:28.928Z,101045.47
2022-08-18T00:17:33.860Z,101043.88
2022-08-18T00:20:37.493Z,101043.34
2022-08-18T00:23:41.360Z,101053.88
2022-08-18T00:26:48.636Z,101053.03
2022-08-18T00:29:57.224Z,101053.88
2022-08-18T00:33:02.156Z,101056.63
2022-08-18T00:36:06.447Z,101056.72
2022-08-18T00:39:10.155Z,101051.84
2022-08-18T00:42:28.840Z,101043.09
2022-08-18T00:45:39.413Z,101049.78
2022-08-18T00:48:48.406Z,101049.88
2022-08-18T00:51:53.511Z,101057.16
2022-08-18T00:54:58.010Z,101057.75
2022-08-18T00:58:10.371Z,101056.69
2022-08-18T01:01:18.759Z,101060.50
2022-08-18T01:04:29.277Z,101062.34
2022-08-18T01:07:40.614Z,101066.88
2022-08-18T01:10:45.122Z,101083.00
2022-08-18T01:13:48.973Z,101082.06
2022-08-18T01:17:11.402Z,101085.56
2022-08-18T01:20:41.536Z,101089.06
2022-08-18T01:23:48.773Z,101093.53
2022-08-18T01:26:51.512Z,101097.44
2022-08-18T01:29:55.133Z,101094.97
2022-08-18T01:33:00.263Z,101085.88
2022-08-18T01:36:14.624Z,101091.44
2022-08-18T01:41:21.022Z,101093.34
2022-08-18T01:42:46.630Z,101083.97
2022-08-18T01:45:50.393Z,101083.78
2022-08-18T01:48:54.503Z,101091.75
2022-08-18T01:51:58.197Z,101087.56
2022-08-18T01:55:04.883Z,101085.41
2022-08-18T01:58:09.278Z,101084.06
2022-08-18T02:01:13.333Z,101085.56
2022-08-18T02:04:36.512Z,101089.09
2022-08-18T02:07:41.292Z,101091.34
2022-08-18T02:10:47.680Z,101084.44
2022-08-18T02:13:51.357Z,101088.06
2022-08-18T02:17:01.017Z,101086.72
2022-08-18T02:20:08.694Z,101088.34
2022-08-18T02:23:12.926Z,101080.81
2022-08-18T02:26:19.770Z,101074.94
2022-08-18T02:29:23.541Z,101080.72
2022-08-18T02:32:27.270Z,101083.09
2022-08-18T02:35:33.839Z,101085.84
2022-08-18T02:38:37.663Z,101077.56
2022-08-18T02:41:46.192Z,101075.59
2022-08-18T02:44:50.087Z,101071.03
2022-08-18T02:47:55.155Z,101077.88
2022-08-18T02:51:03.757Z,101077.78
2022-08-18T02:54:09.412Z,101081.84
2022-08-18T02:57:14.950Z,101081.66
2022-08-18T03:00:20.825Z,101075.19
2022-08-18T03:03:24.427Z,101069.47
2022-08-18T03:06:30.490Z,101075.00
2022-08-18T03:09:35.894Z,101071.19
2022-08-18T03:12:43.250Z,101069.47
2022-08-18T03:15:47.115Z,101075.34
2022-08-18T03:18:50.806Z,101072.25
2022-08-18T03:21:58.051Z,101070.78
2022-08-18T03:25:01.992Z,101075.34
2022-08-18T03:28:07.830Z,101069.84
2022-08-18T03:31:14.287Z,101077.91
2022-08-18T03:34:21.166Z,101080.75
2022-08-18T03:37:24.864Z,101085.03
2022-08-18T03:40:28.866Z,101088.63
2022-08-18T03:43:50.601Z,101088.44
2022-08-18T03:46:55.258Z,101091.22
2022-08-18T03:49:59.512Z,101098.03
2022-08-18T03:53:05.332Z,101100.97
2022-08-18T03:56:17.622Z,101096.06
2022-08-18T03:59:27.074Z,101092.25
2022-08-18T04:02:30.727Z,101089.69
2022-08-18T04:05:35.826Z,101088.56
2022-08-18T04:08:39.440Z,101093.88
2022-08-18T04:11:45.133Z,101092.78
2022-08-18T04:14:51.910Z,101096.22
2022-08-18T04:18:03.503Z,101102.69
2022-08-18T04:21:13.729Z,101108.00
2022-08-18T04:24:17.660Z,101102.69
2022-08-18T04:27:23.604Z,101103.00
2022-08-18T04:30:29.174Z,101100.22
2022-08-18T04:33:33.000Z,101098.31
2022-08-18T04:36:38.466Z,101098.22
2022-08-18T04:39:42.533Z,101096.13
2022-08-18T04:42:47.146Z,101099.63
2022-08-18T04:45:52.226Z,101097.53
2022-08-18T04:48:59.636Z,101099.75
2022-08-18T04:52:40.002Z,101088.28
2022-08-18T04:55:49.876Z,101103.19
2022-08-18T04:58:56.165Z,101093.19
2022-08-18T05:02:05.807Z,101095.34
2022-08-18T05:05:11.260Z,101093.25
2022-08-18T05:08:15.099Z,101090.28
2022-08-18T05:11:18.882Z,101098.88
2022-08-18T05:14:22.755Z,101100.81
2022-08-18T05:17:30.501Z,101097.41
2022-08-18T05:20:35.140Z,101099.88
2022-08-18T05:23:38.845Z,101103.38
2022-08-18T05:26:42.582Z,101112.41
2022-08-18T05:29:46.400Z,101110.28
2022-08-18T05:32:51.524Z,101119.22
2022-08-18T05:36:05.067Z,101129.50
2022-08-18T05:39:22.786Z,101124.00
2022-08-18T05:42:30.551Z,101128.56
2022-08-18T05:45:35.555Z,101130.28
2022-08-18T05:48:43.699Z,101130.28
2022-08-18T05:51:51.137Z,101130.72
2022-08-18T05:55:18.406Z,101128.16
2022-08-18T05:58:33.341Z,101131.38
2022-08-18T06:01:46.040Z,101126.41
2022-08-18T06:04:55.977Z,101133.31
2022-08-18T06:08:05.172Z,101137.78
2022-08-18T06:11:22.066Z,101139.91
2022-08-18T06:14:26.625Z,101140.34
2022-08-18T06:18:02.649Z,101154.72
2022-08-18T06:21:39.441Z,101152.41
2022-08-18T06:24:57.937Z,101154.66
2022-08-18T06:28:09.475Z,101149.34
2022-08-18T06:31:27.359Z,101151.78
2022-08-18T06:34:46.466Z,101154.97
2022-08-18T06:38:23.543Z,101159.56
2022-08-18T06:41:43.084Z,101162.34
2022-08-18T06:44:54.119Z,101160.22
2022-08-18T06:48:15.199Z,101169.81
2022-08-18T06:51:23.089Z,101168.53
2022-08-18T06:54:31.149Z,101173.56
2022-08-18T06:57:38.946Z,101170.28
2022-08-18T07:00:57.410Z,101172.72
2022-08-18T07:04:01.190Z,101167.19
2022-08-18T07:07:22.194Z,101164.72
2022-08-18T07:10:39.899Z,101164.09
2022-08-18T07:13:47.956Z,101162.41
2022-08-18T07:17:11.538Z,101167.66
2022-08-18T07:20:25.369Z,101171.47
2022-08-18T07:23:38.343Z,101182.31
2022-08-18T07:27:03.844Z,101179.94
2022-08-18T07:30:15.728Z,101187.16
2022-08-18T07:33:27.067Z,101189.09
2022-08-18T07:36:48.666Z,101186.66
2022-08-18T07:40:01.069Z,101187.78
2022-08-18T07:43:18.773Z,101189.28
2022-08-18T07:46:33.108Z,101191.94
2022-08-18T07:49:46.043Z,101179.03
2022-08-18T07:53:18.198Z,101195.03
2022-08-18T07:56:38.995Z,101196.34
2022-08-18T07:59:52.477Z,101198.69
2022-08-18T08:03:21.779Z,101205.13
2022-08-18T08:06:36.003Z,101210.50
2022-08-18T08:09:54.517Z,101216.28
2022-08-18T08:13:31.269Z,101217.09
2022-08-18T08:16:50.893Z,101217.09
2022-08-18T08:20:15.800Z,101222.97
2022-08-18T08:23:31.764Z,101221.00
2022-08-18T08:26:55.252Z,101221.94
2022-08-18T08:30:07.068Z,101225.34
2022-08-18T08:33:24.490Z,101222.97
2022-08-18T08:36:34.786Z,101233.50
2022-08-18T08:39:46.356Z,101227.00
2022-08-18T08:42:57.515Z,101231.81
2022-08-18T08:46:12.183Z,101233.91
2022-08-18T08:49:31.986Z,101228.13
2022-08-18T08:52:44.150Z,101221.56
2022-08-18T08:55:52.619Z,101228.06
2022-08-18T08:59:04.827Z,101223.88
2022-08-18T09:02:47.754Z,101223.66
2022-08-18T09:06:07.906Z,101219.63
2022-08-18T09:09:38.751Z,101222.28
2022-08-18T09:13:09.175Z,101214.03
2022-08-18T09:16:36.695Z,101215.97
2022-08-18T09:20:20.683Z,101207.91
2022-08-18T09:23:33.678Z,101216.06
2022-08-18T09:26:47.602Z,101209.88
2022-08-18T09:29:57.385Z,101212.91
2022-08-18T09:33:20.683Z,101214.25
2022-08-18T09:36:45.491Z,101221.06
2022-08-18T09:40:29.634Z,101219.16
2022-08-18T09:44:17.765Z,101227.50
2022-08-18T09:48:20.656Z,101210.13
2022-08-18T09:51:41.251Z,101216.94
2022-08-18T09:54:59.829Z,101220.47
2022-08-18T09:58:20.428Z,101213.22
2022-08-18T10:01:42.445Z,101213.09
2022-08-18T10:04:50.607Z,101210.16
2022-08-18T10:08:21.537Z,101206.09
2022-08-18T10:11:59.399Z,101208.25
2022-08-18T10:15:47.163Z,101219.84
2022-08-18T10:19:13.099Z,101210.94
2022-08-18T10:22:41.847Z,101208.53
2022-08-18T10:25:47.604Z,101206.78
2022-08-18T10:29:00.558Z,101204.81
2022-08-18T10:32:44.305Z,101205.53
2022-08-18T10:36:03.047Z,101200.41
2022-08-18T10:39:11.517Z,101199.38
2022-08-18T10:42:28.637Z,101197.13
2022-08-18T10:45:39.114Z,101199.94
2022-08-18T10:48:42.907Z,101192.38
2022-08-18T10:52:16.156Z,101190.16
2022-08-18T10:55:50.351Z,101198.28
2022-08-18T11:06:45.212Z,101204.28
2022-08-18T11:10:04.423Z,101203.72
2022-08-18T11:13:24.469Z,101203.41
2022-08-18T11:16:55.999Z,101205.34
2022-08-18T11:20:03.973Z,101211.81
2022-08-18T11:23:15.866Z,101209.63
2022-08-18T11:26:20.031Z,101220.63
2022-08-18T11:29:34.206Z,101221.16
2022-08-18T11:32:51.362Z,101231.53
2022-08-18T11:36:01.445Z,101221.75
2022-08-18T11:39:10.762Z,101222.09
2022-08-18T11:45:58.195Z,101204.19
2022-08-18T11:49:16.475Z,101217.19
2022-08-18T11:52:34.432Z,101222.06
2022-08-18T11:55:39.316Z,101217.94
2022-08-18T11:58:56.797Z,101215.78
2022-08-18T12:02:00.957Z,101211.47
2022-08-18T12:05:08.467Z,101209.50
2022-08-18T12:08:54.638Z,101203.91
2022-08-18T12:11:56.528Z,101209.06
2022-08-18T12:15:23.827Z,101215.78
2022-08-18T12:18:29.739Z,101217.81
2022-08-18T12:21:34.424Z,101212.78
2022-08-18T12:24:41.524Z,101217.03
2022-08-18T12:27:45.608Z,101214.84
2022-08-18T12:30:56.150Z,101212.56
2022-08-18T12:34:01.021Z,101205.97
2022-08-18T12:37:14.303Z,101202.41
2022-08-18T12:40:31.046Z,101193.03
2022-08-18T12:43:36.872Z,101189.78
2022-08-18T12:46:43.029Z,101192.75
2022-08-18T12:49:46.956Z,101195.16
2022-08-18T12:52:54.752Z,101198.75
2022-08-18T12:56:01.783Z,101195.75
2022-08-18T12:59:09.544Z,101199.31
2022-08-18T13:02:13.814Z,101201.06
2022-08-18T13:05:26.190Z,101208.56
2022-08-18T13:08:38.150Z,101210.66
2022-08-18T13:11:53.534Z,101206.19
2022-08-18T13:14:57.951Z,101212.91
2022-08-18T13:18:02.928Z,101217.88
2022-08-18T13:21:08.409Z,101207.69
2022-08-18T13:24:13.902Z,101205.91
2022-08-18T13:27:23.339Z,101192.50
2022-08-18T13:30:31.512Z,101186.69
2022-08-18T13:33:57.184Z,101178.28
2022-08-18T13:36:59.933Z,101184.41
2022-08-18T13:40:04.392Z,101176.75
2022-08-18T13:43:13.317Z,101180.94
2022-08-18T13:46:29.995Z,101182.38
2022-08-18T13:49:35.250Z,101200.28
2022-08-18T13:52:44.625Z,101205.63
2022-08-18T13:55:49.756Z,101201.09
2022-08-18T13:58:54.750Z,101190.56
2022-08-18T14:01:58.983Z,101194.75
2022-08-18T14:05:04.694Z,101185.03
2022-08-18T14:08:09.929Z,101190.84
2022-08-18T14:11:14.070Z,101193.63
2022-08-18T14:14:20.114Z,101199.25
2022-08-18T14:17:26.308Z,101218.53
2022-08-18T14:20:48.101Z,101222.59
2022-08-18T14:24:10.718Z,101228.78
2022-08-18T14:27:19.287Z,101233.41
2022-08-18T14:30:25.878Z,101231.97
2022-08-18T14:33:51.166Z,101231.19
2022-08-18T14:36:55.934Z,101238.44
2022-08-18T14:40:01.011Z,101229.06
2022-08-18T14:43:07.990Z,101221.56
2022-08-18T14:46:14.201Z,101223.97
2022-08-18T14:49:28.544Z,101223.44
2022-08-18T14:52:33.316Z,101221.66
2022-08-18T14:55:38.083Z,101236.41
2022-08-18T14:58:42.278Z,101241.78
2022-08-18T15:01:47.318Z,101243.03
2022-08-18T15:04:53.044Z,101244.09
2022-08-18T15:08:03.797Z,101241.97
2022-08-18T15:11:11.602Z,101234.13
2022-08-18T15:14:17.666Z,101240.69
2022-08-18T15:17:24.606Z,101240.47
2022-08-18T15:20:29.994Z,101232.84
2022-08-18T15:23:53.243Z,101220.28
2022-08-18T15:27:05.699Z,101215.53
2022-08-18T15:30:19.494Z,101223.41
2022-08-18T15:33:30.052Z,101228.50
2022-08-18T15:36:36.249Z,101227.88
2022-08-18T15:39:40.070Z,101226.38
2022-08-18T15:42:49.935Z,101230.25
2022-08-18T15:45:57.807Z,101228.06
2022-08-18T15:49:06.015Z,101240.53
2022-08-18T15:52:13.635Z,101234.69
2022-08-18T15:55:24.262Z,101233.22
2022-08-18T15:58:28.585Z,101216.69
2022-08-18T16:01:33.183Z,101221.31
2022-08-18T16:04:39.489Z,101210.03
2022-08-18T16:07:47.680Z,101215.47
2022-08-18T16:10:52.931Z,101220.81
2022-08-18T16:13:58.749Z,101209.03
2022-08-18T16:17:09.119Z,101212.81
2022-08-18T16:20:19.754Z,101218.66
2022-08-18T16:23:23.415Z,101213.66
2022-08-18T16:26:27.288Z,101226.88
2022-08-18T16:29:30.879Z,101222.38
2022-08-18T16:32:34.594Z,101232.41
2022-08-18T16:35:39.957Z,101236.34
2022-08-18T16:38:49.053Z,101240.78
2022-08-18T16:41:57.678Z,101231.59
2022-08-18T16:45:01.563Z,101241.03
2022-08-18T16:48:08.260Z,101238.50
2022-08-18T16:51:17.445Z,101238.00
2022-08-18T16:54:21.210Z,101234.31
2022-08-18T16:57:53.293Z,101235.75
2022-08-18T17:01:18.838Z,101246.72
2022-08-18T17:04:27.778Z,101242.59
2022-08-18T17:07:36.422Z,101242.22
2022-08-18T17:10:43.087Z,101253.28
2022-08-18T17:13:50.002Z,101252.75
2022-08-18T17:16:55.873Z,101252.69
2022-08-18T17:19:59.554Z,101258.38
2022-08-18T17:23:04.770Z,101262.34
2022-08-18T17:26:16.597Z,101262.59
2022-08-18T17:29:28.446Z,101256.50
2022-08-18T17:32:41.821Z,101259.06
2022-08-18T17:35:48.593Z,101261.91
2022-08-18T17:39:00.134Z,101263.19
2022-08-18T17:42:23.005Z,101260.09
2022-08-18T17:45:41.169Z,101256.59
2022-08-18T17:48:52.542Z,101251.47
2022-08-18T17:51:57.559Z,101257.69
2022-08-18T17:55:16.283Z,101262.59
2022-08-18T17:58:34.035Z,101256.31
2022-08-18T18:01:38.328Z,101257.59
2022-08-18T18:04:43.614Z,101243.19
2022-08-18T18:08:00.846Z,101252.75
2022-08-18T18:11:13.062Z,101253.41
2022-08-18T18:14:29.185Z,101263.38
2022-08-18T18:17:37.896Z,101260.16
2022-08-18T18:20:43.791Z,101255.47
2022-08-18T18:23:52.625Z,101262.56
2022-08-18T18:26:59.467Z,101260.09
2022-08-18T18:30:09.025Z,101249.91
2022-08-18T18:33:18.477Z,101255.69
2022-08-18T18:36:40.362Z,101265.59
2022-08-18T18:39:58.241Z,101259.81
2022-08-18T18:43:24.444Z,101255.22
2022-08-18T18:46:34.086Z,101261.47
2022-08-18T18:49:51.749Z,101265.28
2022-08-18T18:53:21.466Z,101258.63
2022-08-18T18:56:31.921Z,101261.59
2022-08-18T19:03:11.787Z,101275.06
2022-08-18T19:06:29.505Z,101283.41
2022-08-18T19:09:48.521Z,101281.91
2022-08-18T19:13:00.853Z,101282.63
2022-08-18T19:16:23.544Z,101289.38
2022-08-18T19:19:39.365Z,101300.97
2022-08-18T19:22:51.288Z,101289.88
2022-08-18T19:25:59.427Z,101285.41
2022-08-18T19:29:13.992Z,101287.41
2022-08-18T19:32:27.647Z,101290.94
2022-08-18T19:35:42.869Z,101292.19
2022-08-18T19:42:18.260Z,101286.38
2022-08-18T19:45:34.323Z,101298.47
2022-08-18T19:48:52.952Z,101311.00
2022-08-18T19:52:45.359Z,101310.31
2022-08-18T19:55:57.978Z,101298.00
2022-08-18T19:59:35.143Z,101307.16
2022-08-18T20:03:10.104Z,101299.63
2022-08-18T20:06:48.469Z,101309.59
2022-08-18T20:10:21.181Z,101300.66
2022-08-18T20:13:35.339Z,101289.91
2022-08-18T20:16:43.802Z,101293.31
2022-08-18T20:20:12.815Z,101292.13
2022-08-18T20:26:50.269Z,101294.78
2022-08-18T20:30:31.457Z,101296.47
2022-08-18T20:33:43.419Z,101288.50
2022-08-18T20:36:49.936Z,101294.97
2022-08-18T20:39:56.804Z,101305.59
2022-08-18T20:43:07.807Z,101304.13
2022-08-18T20:46:33.726Z,101299.88
2022-08-18T20:49:58.419Z,101300.19
2022-08-18T20:53:16.545Z,101298.50
2022-08-18T20:56:43.637Z,101295.25
2022-08-18T21:00:02.269Z,101297.66
2022-08-18T21:03:12.502Z,101295.28
2022-08-18T21:06:17.118Z,101299.00
2022-08-18T21:09:20.830Z,101288.63
2022-08-18T21:12:28.665Z,101297.78
2022-08-18T21:15:40.377Z,101290.44
2022-08-18T21:18:53.853Z,101285.63
2022-08-18T21:22:02.525Z,101283.59
2022-08-18T21:25:13.715Z,101287.53
2022-08-18T21:28:21.605Z,101296.25
2022-08-18T21:31:43.230Z,101295.53
2022-08-18T21:34:49.646Z,101303.50
2022-08-18T21:38:05.677Z,101289.88
2022-08-18T21:41:14.922Z,101298.28
2022-08-18T21:44:23.806Z,101303.56
2022-08-18T21:47:33.633Z,101301.88
2022-08-18T21:50:38.809Z,101306.31
2022-08-18T21:53:42.753Z,101304.84
2022-08-18T21:56:46.707Z,101304.78
2022-08-18T22:00:23.523Z,101303.91
2022-08-18T22:03:29.737Z,101300.34
2022-08-18T22:06:41.595Z,101300.47
2022-08-18T22:10:19.062Z,101305.19
2022-08-18T22:13:45.490Z,101305.94
2022-08-18T22:16:49.498Z,101304.28
2022-08-18T22:19:54.993Z,101308.16
2022-08-18T22:23:32.687Z,101304.91
2022-08-18T22:26:39.559Z,101303.53
2022-08-18T22:29:50.893Z,101286.75
2022-08-18T22:32:54.616Z,101286.16
2022-08-18T22:36:02.971Z,101304.19
2022-08-18T22:39:08.484Z,101305.19
2022-08-18T22:42:13.663Z,101295.69
2022-08-18T22:45:24.222Z,101294.97
2022-08-18T22:48:28.427Z,101310.19
2022-08-18T22:51:36.328Z,101305.72
2022-08-18T22:54:40.074Z,101304.09
2022-08-18T22:57:47.277Z,101306.06
2022-08-18T23:00:51.698Z,101308.72
2022-08-18T23:03:55.623Z,101321.03
2022-08-18T23:07:00.839Z,101310.19
2022-08-18T23:10:12.528Z,101305.81
2022-08-18T23:13:17.787Z,101314.78
2022-08-18T23:16:31.954Z,101326.00
2022-08-18T23:19:36.192Z,101324.13
2022-08-18T23:22:42.141Z,101322.25
2022-08-18T23:25:46.011Z,101317.13
2022-08-18T23:28:52.534Z,101318.75
2022-08-18T23:31:57.153Z,101311.50
2022-08-18T23:35:00.974Z,101305.28
2022-08-18T23:38:07.986Z,101313.75
2022-08-18T23:41:13.690Z,101317.41
2022-08-18T23:44:17.333Z,101312.13
2022-08-18T23:47:21.266Z,101305.91
2022-08-18T23:50:25.201Z,101292.69
2022-08-18T23:53:32.415Z,101290.00
2022-08-18T23:56:38.638Z,101286.56
2022-08-18T23:59:42.232Z,101293.41
